sensor_id;sensor_type;location;lat;lon;timestamp;P1;durP1;ratioP1;P2;durP2;ratioP2
19758;SDS011;10038;42.662;23.278;2022-12-05T00:00:33;12.50;;;5.10;;
19758;SDS011;10038;42.662;23.278;2022-12-05T00:03:02;11.83;;;4.90;;
19758;SDS011;10038;42.662;23.278;2022-12-05T00:05:28;6.65;;;3.85;;
19758;SDS011;10038;42.662;23.278;2022-12-05T00:07:55;7.78;;;4.30;;
19758;SDS011;10038;42.662;23.278;2022-12-05T00:10:22;6.10;;;4.40;;
19758;SDS011;10038;42.662;23.278;2022-12-05T00:12:50;7.13;;;4.30;;
19758;SDS011;10038;42.662;23.278;2022-12-05T00:15:16;10.30;;;3.90;;
19758;SDS011;10038;42.662;23.278;2022-12-05T00:17:43;6.03;;;4.60;;
19758;SDS011;10038;42.662;23.278;2022-12-05T00:20:10;8.83;;;4.50;;
19758;SDS011;10038;42.662;23.278;2022-12-05T00:22:36;8.60;;;3.83;;
19758;SDS011;10038;42.662;23.278;2022-12-05T00:25:04;9.47;;;4.30;;
19758;SDS011;10038;42.662;23.278;2022-12-05T00:27:31;5.75;;;3.60;;
19758;SDS011;10038;42.662;23.278;2022-12-05T00:29:59;5.80;;;4.07;;
19758;SDS011;10038;42.662;23.278;2022-12-05T00:32:27;6.40;;;4.20;;
19758;SDS011;10038;42.662;23.278;2022-12-05T00:34:54;7.50;;;4.90;;
19758;SDS011;10038;42.662;23.278;2022-12-05T00:37:20;8.30;;;4.67;;
19758;SDS011;10038;42.662;23.278;2022-12-05T00:39:47;11.30;;;4.30;;
19758;SDS011;10038;42.662;23.278;2022-12-05T00:42:13;5.80;;;3.93;;
19758;SDS011;10038;42.662;23.278;2022-12-05T00:44:40;10.33;;;4.80;;
19758;SDS011;10038;42.662;23.278;2022-12-05T00:47:08;5.57;;;4.10;;
19758;SDS011;10038;42.662;23.278;2022-12-05T00:49:35;9.83;;;3.90;;
19758;SDS011;10038;42.662;23.278;2022-12-05T00:52:01;8.17;;;3.80;;
19758;SDS011;10038;42.662;23.278;2022-12-05T00:54:28;8.10;;;4.00;;
19758;SDS011;10038;42.662;23.278;2022-12-05T00:56:55;7.50;;;4.67;;
19758;SDS011;10038;42.662;23.278;2022-12-05T00:59:21;7.70;;;4.60;;
19758;SDS011;10038;42.662;23.278;2022-12-05T01:01:48;8.80;;;5.17;;
19758;SDS011;10038;42.662;23.278;2022-12-05T01:04:18;9.00;;;4.23;;
19758;SDS011;10038;42.662;23.278;2022-12-05T01:06:45;9.20;;;5.07;;
19758;SDS011;10038;42.662;23.278;2022-12-05T01:09:12;10.77;;;4.60;;
19758;SDS011;10038;42.662;23.278;2022-12-05T01:11:39;9.60;;;4.90;;
19758;SDS011;10038;42.662;23.278;2022-12-05T01:14:06;9.40;;;5.20;;
19758;SDS011;10038;42.662;23.278;2022-12-05T01:16:33;8.75;;;4.85;;
19758;SDS011;10038;42.662;23.278;2022-12-05T01:19:01;7.93;;;4.10;;
19758;SDS011;10038;42.662;23.278;2022-12-05T01:21:30;8.73;;;4.60;;
19758;SDS011;10038;42.662;23.278;2022-12-05T01:23:56;15.45;;;5.88;;
19758;SDS011;10038;42.662;23.278;2022-12-05T01:26:23;10.03;;;4.73;;
19758;SDS011;10038;42.662;23.278;2022-12-05T01:28:50;8.23;;;4.40;;
19758;SDS011;10038;42.662;23.278;2022-12-05T01:31:17;9.13;;;4.90;;
19758;SDS011;10038;42.662;23.278;2022-12-05T01:33:46;7.40;;;5.20;;
19758;SDS011;10038;42.662;23.278;2022-12-05T01:36:13;11.00;;;5.55;;
19758;SDS011;10038;42.662;23.278;2022-12-05T01:38:42;14.32;;;5.45;;
19758;SDS011;10038;42.662;23.278;2022-12-05T01:41:10;9.23;;;4.50;;
19758;SDS011;10038;42.662;23.278;2022-12-05T01:43:51;8.00;;;4.77;;
19758;SDS011;10038;42.662;23.278;2022-12-05T01:46:18;8.60;;;5.10;;
19758;SDS011;10038;42.662;23.278;2022-12-05T01:48:45;12.27;;;4.90;;
19758;SDS011;10038;42.662;23.278;2022-12-05T01:51:11;11.17;;;5.57;;
19758;SDS011;10038;42.662;23.278;2022-12-05T01:53:38;10.30;;;6.00;;
19758;SDS011;10038;42.662;23.278;2022-12-05T01:56:06;6.93;;;4.13;;
19758;SDS011;10038;42.662;23.278;2022-12-05T01:58:35;9.27;;;5.13;;
19758;SDS011;10038;42.662;23.278;2022-12-05T02:01:02;6.85;;;4.35;;
19758;SDS011;10038;42.662;23.278;2022-12-05T02:03:29;13.43;;;6.07;;
19758;SDS011;10038;42.662;23.278;2022-12-05T02:05:56;10.93;;;5.33;;
19758;SDS011;10038;42.662;23.278;2022-12-05T02:08:23;10.55;;;5.00;;
19758;SDS011;10038;42.662;23.278;2022-12-05T02:10:53;12.93;;;6.03;;
19758;SDS011;10038;42.662;23.278;2022-12-05T02:13:27;10.70;;;5.30;;
19758;SDS011;10038;42.662;23.278;2022-12-05T02:15:58;10.93;;;4.77;;
19758;SDS011;10038;42.662;23.278;2022-12-05T02:18:36;15.48;;;5.80;;
19758;SDS011;10038;42.662;23.278;2022-12-05T02:23:52;10.10;;;5.33;;
19758;SDS011;10038;42.662;23.278;2022-12-05T02:29:24;14.13;;;5.63;;
19758;SDS011;10038;42.662;23.278;2022-12-05T02:31:54;10.38;;;5.15;;
19758;SDS011;10038;42.662;23.278;2022-12-05T02:34:23;7.73;;;4.20;;
19758;SDS011;10038;42.662;23.278;2022-12-05T02:36:53;7.67;;;4.10;;
19758;SDS011;10038;42.662;23.278;2022-12-05T02:39:23;12.68;;;3.63;;
19758;SDS011;10038;42.662;23.278;2022-12-05T02:41:52;9.33;;;5.00;;
19758;SDS011;10038;42.662;23.278;2022-12-05T02:44:21;9.02;;;4.47;;
19758;SDS011;10038;42.662;23.278;2022-12-05T02:46:50;5.60;;;4.45;;
19758;SDS011;10038;42.662;23.278;2022-12-05T02:49:20;11.23;;;4.65;;
19758;SDS011;10038;42.662;23.278;2022-12-05T02:51:48;9.75;;;5.47;;
19758;SDS011;10038;42.662;23.278;2022-12-05T02:54:17;4.87;;;3.90;;
19758;SDS011;10038;42.662;23.278;2022-12-05T02:56:44;8.35;;;4.50;;
19758;SDS011;10038;42.662;23.278;2022-12-05T02:59:12;9.00;;;4.47;;
19758;SDS011;10038;42.662;23.278;2022-12-05T03:01:38;10.43;;;5.20;;
19758;SDS011;10038;42.662;23.278;2022-12-05T03:04:05;10.53;;;4.87;;
19758;SDS011;10038;42.662;23.278;2022-12-05T03:06:35;8.13;;;4.80;;
19758;SDS011;10038;42.662;23.278;2022-12-05T03:09:03;11.88;;;5.50;;
19758;SDS011;10038;42.662;23.278;2022-12-05T03:11:32;8.57;;;5.57;;
19758;SDS011;10038;42.662;23.278;2022-12-05T03:14:00;6.25;;;3.60;;
19758;SDS011;10038;42.662;23.278;2022-12-05T03:16:28;7.93;;;4.63;;
19758;SDS011;10038;42.662;23.278;2022-12-05T03:18:57;13.03;;;4.70;;
19758;SDS011;10038;42.662;23.278;2022-12-05T03:21:28;7.37;;;3.87;;
19758;SDS011;10038;42.662;23.278;2022-12-05T03:23:59;9.43;;;5.17;;
19758;SDS011;10038;42.662;23.278;2022-12-05T03:26:30;11.20;;;5.50;;
19758;SDS011;10038;42.662;23.278;2022-12-05T03:28:59;11.03;;;4.23;;
19758;SDS011;10038;42.662;23.278;2022-12-05T03:31:30;11.00;;;5.43;;
19758;SDS011;10038;42.662;23.278;2022-12-05T03:34:00;10.97;;;5.53;;
19758;SDS011;10038;42.662;23.278;2022-12-05T03:36:31;10.27;;;4.30;;
19758;SDS011;10038;42.662;23.278;2022-12-05T03:39:06;13.60;;;6.43;;
19758;SDS011;10038;42.662;23.278;2022-12-05T03:41:37;10.27;;;4.70;;
19758;SDS011;10038;42.662;23.278;2022-12-05T03:44:06;11.63;;;5.82;;
19758;SDS011;10038;42.662;23.278;2022-12-05T03:46:35;11.13;;;6.50;;
19758;SDS011;10038;42.662;23.278;2022-12-05T03:49:03;10.43;;;7.10;;
19758;SDS011;10038;42.662;23.278;2022-12-05T03:51:33;11.23;;;5.47;;
19758;SDS011;10038;42.662;23.278;2022-12-05T03:54:02;16.08;;;7.40;;
19758;SDS011;10038;42.662;23.278;2022-12-05T03:56:34;13.40;;;5.43;;
19758;SDS011;10038;42.662;23.278;2022-12-05T03:59:01;12.57;;;6.10;;
19758;SDS011;10038;42.662;23.278;2022-12-05T04:01:30;8.20;;;5.23;;
19758;SDS011;10038;42.662;23.278;2022-12-05T04:03:59;10.03;;;6.17;;
19758;SDS011;10038;42.662;23.278;2022-12-05T04:06:29;14.25;;;6.45;;
19758;SDS011;10038;42.662;23.278;2022-12-05T04:08:57;10.37;;;5.53;;
19758;SDS011;10038;42.662;23.278;2022-12-05T04:11:26;11.87;;;6.23;;
19758;SDS011;10038;42.662;23.278;2022-12-05T04:13:54;10.85;;;8.38;;
19758;SDS011;10038;42.662;23.278;2022-12-05T04:16:24;9.20;;;5.30;;
19758;SDS011;10038;42.662;23.278;2022-12-05T04:19:12;10.80;;;5.43;;
19758;SDS011;10038;42.662;23.278;2022-12-05T04:21:41;9.60;;;5.47;;
19758;SDS011;10038;42.662;23.278;2022-12-05T04:24:09;11.70;;;6.67;;
19758;SDS011;10038;42.662;23.278;2022-12-05T04:26:57;11.40;;;5.53;;
19758;SDS011;10038;42.662;23.278;2022-12-05T04:29:27;20.00;;;6.40;;
19758;SDS011;10038;42.662;23.278;2022-12-05T04:31:57;12.05;;;5.30;;
19758;SDS011;10038;42.662;23.278;2022-12-05T04:34:24;10.90;;;6.37;;
19758;SDS011;10038;42.662;23.278;2022-12-05T04:36:53;11.75;;;5.85;;
19758;SDS011;10038;42.662;23.278;2022-12-05T04:39:22;10.53;;;6.17;;
19758;SDS011;10038;42.662;23.278;2022-12-05T04:41:51;10.68;;;5.07;;
19758;SDS011;10038;42.662;23.278;2022-12-05T04:44:20;9.30;;;4.80;;
19758;SDS011;10038;42.662;23.278;2022-12-05T04:46:50;10.85;;;4.88;;
19758;SDS011;10038;42.662;23.278;2022-12-05T04:49:19;8.77;;;5.60;;
19758;SDS011;10038;42.662;23.278;2022-12-05T04:51:47;12.73;;;6.20;;
19758;SDS011;10038;42.662;23.278;2022-12-05T04:54:16;13.37;;;6.13;;
19758;SDS011;10038;42.662;23.278;2022-12-05T04:56:43;14.60;;;6.37;;
19758;SDS011;10038;42.662;23.278;2022-12-05T04:59:11;8.77;;;5.23;;
19758;SDS011;10038;42.662;23.278;2022-12-05T05:01:38;10.73;;;5.70;;
19758;SDS011;10038;42.662;23.278;2022-12-05T05:04:08;7.00;;;4.83;;
19758;SDS011;10038;42.662;23.278;2022-12-05T05:06:36;10.00;;;5.20;;
19758;SDS011;10038;42.662;23.278;2022-12-05T05:09:03;11.23;;;5.53;;
19758;SDS011;10038;42.662;23.278;2022-12-05T05:11:30;12.00;;;6.50;;
19758;SDS011;10038;42.662;23.278;2022-12-05T05:13:58;13.27;;;6.50;;
19758;SDS011;10038;42.662;23.278;2022-12-05T05:16:25;15.73;;;6.13;;
19758;SDS011;10038;42.662;23.278;2022-12-05T05:18:52;13.70;;;5.93;;
19758;SDS011;10038;42.662;23.278;2022-12-05T05:21:22;11.00;;;6.20;;
19758;SDS011;10038;42.662;23.278;2022-12-05T05:23:49;17.80;;;6.43;;
19758;SDS011;10038;42.662;23.278;2022-12-05T05:26:16;12.67;;;6.63;;
19758;SDS011;10038;42.662;23.278;2022-12-05T05:28:43;9.90;;;5.23;;
19758;SDS011;10038;42.662;23.278;2022-12-05T05:31:09;10.57;;;6.47;;
19758;SDS011;10038;42.662;23.278;2022-12-05T05:33:36;9.70;;;4.87;;
19758;SDS011;10038;42.662;23.278;2022-12-05T05:36:03;10.37;;;5.70;;
19758;SDS011;10038;42.662;23.278;2022-12-05T05:38:31;11.60;;;5.73;;
19758;SDS011;10038;42.662;23.278;2022-12-05T05:41:00;13.93;;;6.30;;
19758;SDS011;10038;42.662;23.278;2022-12-05T05:46:02;10.03;;;4.60;;
19758;SDS011;10038;42.662;23.278;2022-12-05T05:48:28;11.80;;;6.00;;
19758;SDS011;10038;42.662;23.278;2022-12-05T05:50:57;11.30;;;5.83;;
19758;SDS011;10038;42.662;23.278;2022-12-05T05:53:23;13.50;;;6.20;;
19758;SDS011;10038;42.662;23.278;2022-12-05T05:55:51;12.63;;;6.03;;
19758;SDS011;10038;42.662;23.278;2022-12-05T05:58:18;12.60;;;7.13;;
19758;SDS011;10038;42.662;23.278;2022-12-05T06:00:45;10.57;;;5.20;;
19758;SDS011;10038;42.662;23.278;2022-12-05T06:03:11;13.17;;;5.77;;
19758;SDS011;10038;42.662;23.278;2022-12-05T06:05:38;12.87;;;5.37;;
19758;SDS011;10038;42.662;23.278;2022-12-05T06:08:05;11.50;;;5.23;;
19758;SDS011;10038;42.662;23.278;2022-12-05T06:10:31;15.50;;;7.10;;
19758;SDS011;10038;42.662;23.278;2022-12-05T06:13:00;8.90;;;5.67;;
19758;SDS011;10038;42.662;23.278;2022-12-05T06:15:26;8.80;;;6.20;;
19758;SDS011;10038;42.662;23.278;2022-12-05T06:17:53;8.23;;;4.90;;
19758;SDS011;10038;42.662;23.278;2022-12-05T06:20:19;11.63;;;6.00;;
19758;SDS011;10038;42.662;23.278;2022-12-05T06:22:46;10.53;;;6.20;;
19758;SDS011;10038;42.662;23.278;2022-12-05T06:25:13;10.70;;;5.50;;
19758;SDS011;10038;42.662;23.278;2022-12-05T06:27:39;13.33;;;6.87;;
19758;SDS011;10038;42.662;23.278;2022-12-05T06:30:08;8.67;;;4.83;;
19758;SDS011;10038;42.662;23.278;2022-12-05T06:32:35;14.10;;;5.20;;
19758;SDS011;10038;42.662;23.278;2022-12-05T06:35:01;10.57;;;6.20;;
19758;SDS011;10038;42.662;23.278;2022-12-05T06:37:35;12.83;;;6.03;;
19758;SDS011;10038;42.662;23.278;2022-12-05T06:40:02;21.90;;;7.20;;
19758;SDS011;10038;42.662;23.278;2022-12-05T06:42:29;12.77;;;6.50;;
19758;SDS011;10038;42.662;23.278;2022-12-05T06:44:56;10.10;;;6.23;;
19758;SDS011;10038;42.662;23.278;2022-12-05T06:47:24;13.70;;;6.60;;
19758;SDS011;10038;42.662;23.278;2022-12-05T06:49:51;9.50;;;5.77;;
19758;SDS011;10038;42.662;23.278;2022-12-05T06:52:17;13.63;;;6.10;;
19758;SDS011;10038;42.662;23.278;2022-12-05T06:54:45;13.97;;;6.33;;
19758;SDS011;10038;42.662;23.278;2022-12-05T06:57:12;15.30;;;7.20;;
19758;SDS011;10038;42.662;23.278;2022-12-05T06:59:38;10.90;;;6.53;;
19758;SDS011;10038;42.662;23.278;2022-12-05T07:02:05;13.83;;;6.70;;
19758;SDS011;10038;42.662;23.278;2022-12-05T07:04:33;8.87;;;6.07;;
19758;SDS011;10038;42.662;23.278;2022-12-05T07:07:00;9.03;;;5.23;;
19758;SDS011;10038;42.662;23.278;2022-12-05T07:09:32;10.67;;;6.60;;
19758;SDS011;10038;42.662;23.278;2022-12-05T07:12:13;8.60;;;6.33;;
19758;SDS011;10038;42.662;23.278;2022-12-05T07:14:43;11.90;;;6.40;;
19758;SDS011;10038;42.662;23.278;2022-12-05T07:17:09;13.30;;;6.70;;
19758;SDS011;10038;42.662;23.278;2022-12-05T07:19:37;10.20;;;5.80;;
19758;SDS011;10038;42.662;23.278;2022-12-05T07:24:38;15.83;;;5.87;;
19758;SDS011;10038;42.662;23.278;2022-12-05T07:27:05;8.40;;;4.53;;
19758;SDS011;10038;42.662;23.278;2022-12-05T07:29:31;8.23;;;5.00;;
19758;SDS011;10038;42.662;23.278;2022-12-05T07:31:58;9.03;;;5.23;;
19758;SDS011;10038;42.662;23.278;2022-12-05T07:34:24;13.70;;;5.80;;
19758;SDS011;10038;42.662;23.278;2022-12-05T07:36:53;6.20;;;4.67;;
19758;SDS011;10038;42.662;23.278;2022-12-05T07:39:22;11.63;;;5.77;;
19758;SDS011;10038;42.662;23.278;2022-12-05T07:41:49;10.30;;;6.30;;
19758;SDS011;10038;42.662;23.278;2022-12-05T07:44:16;10.80;;;4.80;;
19758;SDS011;10038;42.662;23.278;2022-12-05T07:46:42;12.47;;;5.67;;
19758;SDS011;10038;42.662;23.278;2022-12-05T07:49:09;8.03;;;3.97;;
19758;SDS011;10038;42.662;23.278;2022-12-05T07:51:35;10.73;;;6.13;;
19758;SDS011;10038;42.662;23.278;2022-12-05T07:54:04;7.37;;;4.20;;
19758;SDS011;10038;42.662;23.278;2022-12-05T07:56:32;10.83;;;4.90;;
19758;SDS011;10038;42.662;23.278;2022-12-05T07:58:59;9.27;;;3.83;;
19758;SDS011;10038;42.662;23.278;2022-12-05T08:01:28;9.47;;;4.93;;
19758;SDS011;10038;42.662;23.278;2022-12-05T08:03:56;8.53;;;5.30;;
19758;SDS011;10038;42.662;23.278;2022-12-05T08:06:24;8.90;;;4.93;;
19758;SDS011;10038;42.662;23.278;2022-12-05T08:08:50;12.47;;;5.37;;
19758;SDS011;10038;42.662;23.278;2022-12-05T08:11:19;10.00;;;7.20;;
19758;SDS011;10038;42.662;23.278;2022-12-05T08:13:46;12.37;;;5.60;;
19758;SDS011;10038;42.662;23.278;2022-12-05T08:16:14;9.07;;;4.63;;
19758;SDS011;10038;42.662;23.278;2022-12-05T08:18:41;11.03;;;6.27;;
19758;SDS011;10038;42.662;23.278;2022-12-05T08:21:08;10.33;;;6.23;;
19758;SDS011;10038;42.662;23.278;2022-12-05T08:23:36;11.10;;;5.30;;
19758;SDS011;10038;42.662;23.278;2022-12-05T08:26:02;10.37;;;6.03;;
19758;SDS011;10038;42.662;23.278;2022-12-05T08:28:31;14.53;;;5.93;;
19758;SDS011;10038;42.662;23.278;2022-12-05T08:31:01;9.90;;;6.03;;
19758;SDS011;10038;42.662;23.278;2022-12-05T08:33:28;13.53;;;6.27;;
19758;SDS011;10038;42.662;23.278;2022-12-05T08:35:55;9.20;;;5.43;;
19758;SDS011;10038;42.662;23.278;2022-12-05T08:38:21;7.27;;;4.77;;
19758;SDS011;10038;42.662;23.278;2022-12-05T08:40:48;11.90;;;5.53;;
19758;SDS011;10038;42.662;23.278;2022-12-05T08:43:14;8.70;;;5.03;;
19758;SDS011;10038;42.662;23.278;2022-12-05T08:45:48;8.10;;;3.93;;
19758;SDS011;10038;42.662;23.278;2022-12-05T08:48:14;12.67;;;4.37;;
19758;SDS011;10038;42.662;23.278;2022-12-05T08:50:41;11.70;;;5.57;;
19758;SDS011;10038;42.662;23.278;2022-12-05T08:53:11;6.90;;;3.55;;
19758;SDS011;10038;42.662;23.278;2022-12-05T08:55:38;6.00;;;3.30;;
19758;SDS011;10038;42.662;23.278;2022-12-05T08:58:05;5.40;;;3.80;;
19758;SDS011;10038;42.662;23.278;2022-12-05T09:00:31;10.10;;;4.90;;
19758;SDS011;10038;42.662;23.278;2022-12-05T09:02:59;8.17;;;4.13;;
19758;SDS011;10038;42.662;23.278;2022-12-05T09:05:26;10.50;;;5.43;;
19758;SDS011;10038;42.662;23.278;2022-12-05T09:07:53;12.10;;;4.90;;
19758;SDS011;10038;42.662;23.278;2022-12-05T09:10:19;8.40;;;4.10;;
19758;SDS011;10038;42.662;23.278;2022-12-05T09:12:46;8.07;;;4.50;;
19758;SDS011;10038;42.662;23.278;2022-12-05T09:15:15;7.27;;;4.60;;
19758;SDS011;10038;42.662;23.278;2022-12-05T09:20:11;6.03;;;4.40;;
19758;SDS011;10038;42.662;23.278;2022-12-05T09:22:38;5.43;;;3.50;;
19758;SDS011;10038;42.662;23.278;2022-12-05T09:25:05;8.00;;;3.47;;
19758;SDS011;10038;42.662;23.278;2022-12-05T09:27:32;5.17;;;3.33;;
19758;SDS011;10038;42.662;23.278;2022-12-05T09:29:58;9.13;;;5.73;;
19758;SDS011;10038;42.662;23.278;2022-12-05T09:32:25;6.97;;;3.53;;
19758;SDS011;10038;42.662;23.278;2022-12-05T09:34:51;7.93;;;4.47;;
19758;SDS011;10038;42.662;23.278;2022-12-05T09:37:19;5.73;;;3.07;;
19758;SDS011;10038;42.662;23.278;2022-12-05T09:39:46;6.87;;;4.00;;
19758;SDS011;10038;42.662;23.278;2022-12-05T09:42:22;6.40;;;3.30;;
19758;SDS011;10038;42.662;23.278;2022-12-05T09:45:01;4.40;;;2.97;;
19758;SDS011;10038;42.662;23.278;2022-12-05T09:47:30;7.27;;;3.63;;
19758;SDS011;10038;42.662;23.278;2022-12-05T09:49:59;6.57;;;3.23;;
19758;SDS011;10038;42.662;23.278;2022-12-05T09:52:28;6.73;;;3.60;;
19758;SDS011;10038;42.662;23.278;2022-12-05T09:54:56;8.13;;;4.53;;
19758;SDS011;10038;42.662;23.278;2022-12-05T09:57:25;6.33;;;3.80;;
19758;SDS011;10038;42.662;23.278;2022-12-05T09:59:54;4.40;;;3.20;;
19758;SDS011;10038;42.662;23.278;2022-12-05T10:02:23;8.10;;;4.00;;
19758;SDS011;10038;42.662;23.278;2022-12-05T10:04:53;8.43;;;3.90;;
19758;SDS011;10038;42.662;23.278;2022-12-05T10:07:24;6.07;;;4.20;;
19758;SDS011;10038;42.662;23.278;2022-12-05T10:10:02;7.07;;;4.90;;
19758;SDS011;10038;42.662;23.278;2022-12-05T10:12:41;7.83;;;3.90;;
19758;SDS011;10038;42.662;23.278;2022-12-05T10:15:14;6.23;;;4.03;;
19758;SDS011;10038;42.662;23.278;2022-12-05T10:17:43;7.97;;;4.00;;
19758;SDS011;10038;42.662;23.278;2022-12-05T10:20:13;9.70;;;4.63;;
19758;SDS011;10038;42.662;23.278;2022-12-05T10:22:42;8.50;;;4.63;;
19758;SDS011;10038;42.662;23.278;2022-12-05T10:25:11;7.33;;;5.40;;
19758;SDS011;10038;42.662;23.278;2022-12-05T10:27:40;8.00;;;4.67;;
19758;SDS011;10038;42.662;23.278;2022-12-05T10:30:11;13.23;;;6.53;;
19758;SDS011;10038;42.662;23.278;2022-12-05T10:32:39;6.60;;;4.27;;
19758;SDS011;10038;42.662;23.278;2022-12-05T10:35:13;13.77;;;5.70;;
19758;SDS011;10038;42.662;23.278;2022-12-05T10:37:41;6.13;;;4.40;;
19758;SDS011;10038;42.662;23.278;2022-12-05T10:40:12;9.80;;;4.93;;
19758;SDS011;10038;42.662;23.278;2022-12-05T10:42:39;10.83;;;5.30;;
19758;SDS011;10038;42.662;23.278;2022-12-05T10:45:06;9.30;;;4.83;;
19758;SDS011;10038;42.662;23.278;2022-12-05T10:47:33;11.87;;;5.70;;
19758;SDS011;10038;42.662;23.278;2022-12-05T10:50:03;7.07;;;4.70;;
19758;SDS011;10038;42.662;23.278;2022-12-05T10:52:31;12.00;;;6.30;;
19758;SDS011;10038;42.662;23.278;2022-12-05T10:55:07;7.30;;;5.10;;
19758;SDS011;10038;42.662;23.278;2022-12-05T10:57:40;5.63;;;4.00;;
19758;SDS011;10038;42.662;23.278;2022-12-05T11:00:10;9.97;;;5.87;;
19758;SDS011;10038;42.662;23.278;2022-12-05T11:02:39;11.63;;;5.90;;
19758;SDS011;10038;42.662;23.278;2022-12-05T11:05:06;8.73;;;4.37;;
19758;SDS011;10038;42.662;23.278;2022-12-05T11:07:33;11.03;;;4.93;;
19758;SDS011;10038;42.662;23.278;2022-12-05T11:10:03;8.43;;;4.70;;
19758;SDS011;10038;42.662;23.278;2022-12-05T11:12:35;10.40;;;4.97;;
19758;SDS011;10038;42.662;23.278;2022-12-05T11:15:04;8.60;;;5.47;;
19758;SDS011;10038;42.662;23.278;2022-12-05T11:17:33;10.47;;;6.03;;
19758;SDS011;10038;42.662;23.278;2022-12-05T11:20:00;10.37;;;5.90;;
19758;SDS011;10038;42.662;23.278;2022-12-05T11:22:31;8.00;;;5.10;;
19758;SDS011;10038;42.662;23.278;2022-12-05T11:24:58;10.53;;;5.13;;
19758;SDS011;10038;42.662;23.278;2022-12-05T11:27:26;10.77;;;6.20;;
19758;SDS011;10038;42.662;23.278;2022-12-05T11:29:53;11.60;;;5.90;;
19758;SDS011;10038;42.662;23.278;2022-12-05T11:32:23;8.60;;;5.53;;
19758;SDS011;10038;42.662;23.278;2022-12-05T11:34:51;10.10;;;5.30;;
19758;SDS011;10038;42.662;23.278;2022-12-05T11:37:23;9.73;;;6.30;;
19758;SDS011;10038;42.662;23.278;2022-12-05T11:39:50;8.33;;;5.17;;
19758;SDS011;10038;42.662;23.278;2022-12-05T11:42:20;8.13;;;5.23;;
19758;SDS011;10038;42.662;23.278;2022-12-05T11:44:54;9.10;;;5.20;;
19758;SDS011;10038;42.662;23.278;2022-12-05T11:47:30;9.87;;;5.57;;
19758;SDS011;10038;42.662;23.278;2022-12-05T11:50:10;9.60;;;5.50;;
19758;SDS011;10038;42.662;23.278;2022-12-05T11:52:43;11.90;;;5.70;;
19758;SDS011;10038;42.662;23.278;2022-12-05T11:55:15;9.10;;;5.80;;
19758;SDS011;10038;42.662;23.278;2022-12-05T11:57:53;9.33;;;6.07;;
19758;SDS011;10038;42.662;23.278;2022-12-05T12:00:21;11.03;;;6.30;;
19758;SDS011;10038;42.662;23.278;2022-12-05T12:03:03;7.47;;;5.23;;
19758;SDS011;10038;42.662;23.278;2022-12-05T12:05:37;9.90;;;5.10;;
19758;SDS011;10038;42.662;23.278;2022-12-05T12:08:07;4.80;;;3.83;;
19758;SDS011;10038;42.662;23.278;2022-12-05T12:10:40;9.20;;;5.40;;
19758;SDS011;10038;42.662;23.278;2022-12-05T12:13:14;7.63;;;4.10;;
19758;SDS011;10038;42.662;23.278;2022-12-05T12:15:49;11.17;;;6.07;;
19758;SDS011;10038;42.662;23.278;2022-12-05T12:18:23;8.47;;;4.43;;
19758;SDS011;10038;42.662;23.278;2022-12-05T12:20:55;6.63;;;4.80;;
19758;SDS011;10038;42.662;23.278;2022-12-05T12:23:33;8.50;;;5.40;;
19758;SDS011;10038;42.662;23.278;2022-12-05T12:26:06;7.77;;;4.63;;
19758;SDS011;10038;42.662;23.278;2022-12-05T12:28:36;7.83;;;4.67;;
19758;SDS011;10038;42.662;23.278;2022-12-05T12:31:07;8.77;;;5.03;;
19758;SDS011;10038;42.662;23.278;2022-12-05T12:33:38;11.70;;;5.20;;
19758;SDS011;10038;42.662;23.278;2022-12-05T12:36:10;8.80;;;5.27;;
19758;SDS011;10038;42.662;23.278;2022-12-05T12:38:47;7.80;;;5.20;;
19758;SDS011;10038;42.662;23.278;2022-12-05T12:41:18;10.50;;;6.40;;
19758;SDS011;10038;42.662;23.278;2022-12-05T12:43:50;8.20;;;5.10;;
19758;SDS011;10038;42.662;23.278;2022-12-05T12:46:26;9.80;;;5.40;;
19758;SDS011;10038;42.662;23.278;2022-12-05T12:51:43;10.33;;;5.70;;
19758;SDS011;10038;42.662;23.278;2022-12-05T12:54:13;9.57;;;5.10;;
19758;SDS011;10038;42.662;23.278;2022-12-05T12:56:44;11.00;;;5.87;;
19758;SDS011;10038;42.662;23.278;2022-12-05T12:59:17;10.10;;;6.43;;
19758;SDS011;10038;42.662;23.278;2022-12-05T13:01:48;8.93;;;5.17;;
19758;SDS011;10038;42.662;23.278;2022-12-05T13:04:18;11.13;;;6.97;;
19758;SDS011;10038;42.662;23.278;2022-12-05T13:06:50;10.40;;;6.10;;
19758;SDS011;10038;42.662;23.278;2022-12-05T13:09:20;11.93;;;6.23;;
19758;SDS011;10038;42.662;23.278;2022-12-05T13:11:48;9.50;;;6.40;;
19758;SDS011;10038;42.662;23.278;2022-12-05T13:14:16;8.60;;;5.40;;
19758;SDS011;10038;42.662;23.278;2022-12-05T13:16:45;10.70;;;5.70;;
19758;SDS011;10038;42.662;23.278;2022-12-05T13:19:19;11.90;;;6.07;;
19758;SDS011;10038;42.662;23.278;2022-12-05T13:21:49;10.00;;;6.40;;
19758;SDS011;10038;42.662;23.278;2022-12-05T13:24:16;11.70;;;6.27;;
19758;SDS011;10038;42.662;23.278;2022-12-05T13:26:45;13.90;;;5.57;;
19758;SDS011;10038;42.662;23.278;2022-12-05T13:29:17;11.87;;;6.27;;
19758;SDS011;10038;42.662;23.278;2022-12-05T13:31:45;13.57;;;6.67;;
19758;SDS011;10038;42.662;23.278;2022-12-05T13:34:32;14.40;;;7.10;;
19758;SDS011;10038;42.662;23.278;2022-12-05T13:37:10;12.43;;;6.40;;
19758;SDS011;10038;42.662;23.278;2022-12-05T13:39:55;17.00;;;7.53;;
19758;SDS011;10038;42.662;23.278;2022-12-05T13:42:40;15.10;;;6.47;;
19758;SDS011;10038;42.662;23.278;2022-12-05T13:45:08;14.33;;;7.20;;
19758;SDS011;10038;42.662;23.278;2022-12-05T13:47:38;14.77;;;8.20;;
19758;SDS011;10038;42.662;23.278;2022-12-05T13:50:13;16.47;;;8.00;;
19758;SDS011;10038;42.662;23.278;2022-12-05T13:52:45;14.60;;;7.93;;
19758;SDS011;10038;42.662;23.278;2022-12-05T13:55:17;17.70;;;8.33;;
19758;SDS011;10038;42.662;23.278;2022-12-05T13:57:46;14.20;;;8.20;;
19758;SDS011;10038;42.662;23.278;2022-12-05T14:00:25;21.97;;;10.50;;
19758;SDS011;10038;42.662;23.278;2022-12-05T14:02:53;19.50;;;9.40;;
19758;SDS011;10038;42.662;23.278;2022-12-05T14:05:39;18.17;;;9.07;;
19758;SDS011;10038;42.662;23.278;2022-12-05T14:11:09;19.33;;;10.13;;
19758;SDS011;10038;42.662;23.278;2022-12-05T14:13:37;16.90;;;9.33;;
19758;SDS011;10038;42.662;23.278;2022-12-05T14:18:51;18.47;;;9.60;;
19758;SDS011;10038;42.662;23.278;2022-12-05T14:21:20;19.63;;;9.10;;
19758;SDS011;10038;42.662;23.278;2022-12-05T14:23:59;15.67;;;8.20;;
19758;SDS011;10038;42.662;23.278;2022-12-05T14:32:02;18.90;;;9.17;;
19758;SDS011;10038;42.662;23.278;2022-12-05T14:34:31;18.77;;;8.57;;
19758;SDS011;10038;42.662;23.278;2022-12-05T14:37:02;24.60;;;9.30;;
19758;SDS011;10038;42.662;23.278;2022-12-05T14:39:30;20.30;;;10.03;;
19758;SDS011;10038;42.662;23.278;2022-12-05T14:41:58;20.17;;;9.93;;
19758;SDS011;10038;42.662;23.278;2022-12-05T14:44:26;21.17;;;9.20;;
19758;SDS011;10038;42.662;23.278;2022-12-05T14:46:56;21.93;;;11.30;;
19758;SDS011;10038;42.662;23.278;2022-12-05T14:49:51;21.70;;;10.13;;
19758;SDS011;10038;42.662;23.278;2022-12-05T14:52:19;26.70;;;10.40;;
19758;SDS011;10038;42.662;23.278;2022-12-05T14:54:46;22.60;;;9.10;;
19758;SDS011;10038;42.662;23.278;2022-12-05T14:57:13;20.80;;;10.23;;
19758;SDS011;10038;42.662;23.278;2022-12-05T14:59:43;17.90;;;8.80;;
19758;SDS011;10038;42.662;23.278;2022-12-05T15:02:15;16.80;;;7.50;;
19758;SDS011;10038;42.662;23.278;2022-12-05T15:04:45;23.43;;;11.40;;